Time;durP1;ratioP1;P1;durP2;ratioP2;P2;SDS_P1;SDS_P2;PMS_P1;PMS_P2;Temp;Humidity;BMP_temperature;BMP_pressure;BME280_temperature;BME280_humidity;BME280_pressure;Samples;Min_cycle;Max_cycle;Signal;HPM_P1;HPM_P2
2022/10/21 00:00:14;;;;;;;;;4.75;3.50;;;;;23.18;56.46;99876.34;5082511;28;45327;-41
2022/10/21 00:02:39;;;;;;;;;3.00;3.00;;;;;23.19;56.85;99883.38;5081776;28;59754;-42
2022/10/21 00:05:05;;;;;;;;;3.25;3.00;;;;;23.19;56.47;99876.25;5080450;28;68224;-41
2022/10/21 00:07:30;;;;;;;;;3.50;2.00;;;;;23.20;56.92;99879.78;5082311;28;45383;-41
2022/10/21 00:09:56;;;;;;;;;3.00;3.00;;;;;23.20;56.59;99869.16;5081403;28;66472;-41
2022/10/21 00:12:21;;;;;;;;;4.50;4.00;;;;;23.21;57.42;99874.38;5064518;28;45795;-40
2022/10/21 00:14:46;;;;;;;;;4.50;3.00;;;;;23.21;56.71;99870.84;5061349;28;67908;-40
2022/10/21 00:17:12;;;;;;;;;4.50;3.00;;;;;23.21;56.80;99854.88;5061013;28;64157;-40
2022/10/21 00:19:38;;;;;;;;;4.25;3.75;;;;;23.22;57.23;99861.91;5061235;28;65791;-43
2022/10/21 00:22:04;;;;;;;;;4.50;2.75;;;;;23.23;57.33;99863.63;5061901;28;45238;-45
2022/10/21 00:24:29;;;;;;;;;2.25;2.25;;;;;23.22;57.02;99853.94;5061814;28;45219;-41
2022/10/21 00:26:55;;;;;;;;;2.50;2.00;;;;;23.20;57.00;99854.03;5079356;28;59921;-40
2022/10/21 00:29:20;;;;;;;;;4.00;3.00;;;;;23.21;56.76;99849.56;5082065;28;46837;-40
2022/10/21 00:31:45;;;;;;;;;3.00;3.00;;;;;23.23;57.16;99847.66;5081976;28;45259;-39
2022/10/21 00:34:11;;;;;;;;;4.00;4.00;;;;;23.24;57.31;99846.72;5081448;28;63705;-40
2022/10/21 00:36:36;;;;;;;;;5.00;4.50;;;;;23.23;57.17;99842.34;5081188;28;69068;-40
2022/10/21 00:39:02;;;;;;;;;3.00;3.00;;;;;23.24;57.08;99850.22;5081782;28;46004;-43
2022/10/21 00:41:27;;;;;;;;;4.50;3.50;;;;;23.24;56.93;99844.91;5079912;28;66857;-41
2022/10/21 00:44:04;;;;;;;;;3.00;3.00;;;;;23.25;56.91;99845.75;5081142;28;61846;-42
2022/10/21 00:46:47;;;;;;;;;4.00;2.50;;;;;23.25;57.10;99840.44;5081595;28;45393;-41
2022/10/21 00:49:44;;;;;;;;;3.75;3.00;;;;;23.25;56.76;99835.13;5081568;28;45333;-41
2022/10/21 00:52:12;;;;;;;;;3.75;3.75;;;;;23.25;56.99;99829.78;5051802;28;45422;-41
2022/10/21 00:54:37;;;;;;;;;6.00;3.00;;;;;23.26;56.28;99834.16;5059942;28;45197;-41
2022/10/21 00:57:03;;;;;;;;;2.00;2.00;;;;;23.25;56.40;99833.31;5042396;28;71768;-41
2022/10/21 00:59:30;;;;;;;;;3.25;3.25;;;;;23.26;56.46;99823.50;5058926;28;74554;-40
2022/10/21 01:01:56;;;;;;;;;7.50;4.00;;;;;23.25;56.56;99817.34;5043154;28;45274;-40
2022/10/21 01:04:21;;;;;;;;;5.00;4.00;;;;;23.24;56.30;99815.63;5078219;28;60218;-42
2022/10/21 01:06:47;;;;;;;;;4.25;3.00;;;;;23.24;55.98;99802.31;5080342;28;45628;-42
2022/10/21 01:09:12;;;;;;;;;5.75;4.00;;;;;23.25;56.81;99796.03;5080491;28;58989;-41
2022/10/21 01:11:43;;;;;;;;;3.25;3.25;;;;;23.25;56.28;99785.38;5059525;28;54652;-40
2022/10/21 01:14:36;;;;;;;;;5.00;5.00;;;;;23.25;56.69;99785.38;5095910;27;45282;-39
2022/10/21 01:17:40;;;;;;;;;4.00;3.00;;;;;23.25;56.18;99784.53;5081680;28;45488;-40
2022/10/21 01:20:24;;;;;;;;;4.00;4.00;;;;;23.24;56.31;99774.81;5016398;28;48308;-42
2022/10/21 01:23:23;;;;;;;;;4.00;3.00;;;;;23.24;56.13;99766.84;5066074;28;45506;-40
2022/10/21 01:26:01;;;;;;;;;3.00;3.00;;;;;23.23;56.15;99766.00;5065568;28;45205;-43
2022/10/21 01:28:54;;;;;;;;;3.50;3.25;;;;;23.23;56.09;99766.00;5061166;28;45240;-42
2022/10/21 01:31:23;;;;;;;;;5.00;3.00;;;;;23.24;55.67;99775.69;5060503;28;45433;-42
2022/10/21 01:34:09;;;;;;;;;4.25;4.00;;;;;23.25;55.97;99776.53;5059642;28;45351;-40
2022/10/21 01:36:56;;;;;;;;;4.75;2.75;;;;;23.25;56.12;99781.88;5059482;28;45347;-42
2022/10/21 01:39:32;;;;;;;;;4.50;3.50;;;;;23.25;56.15;99787.19;5059235;28;45338;-40
2022/10/21 01:42:17;;;;;;;;;3.75;3.00;;;;;23.25;55.82;99784.53;5068233;28;45456;-40
2022/10/21 01:44:50;;;;;;;;;4.00;4.00;;;;;23.25;55.96;99792.50;5075359;28;45278;-41
2022/10/21 01:47:33;;;;;;;;;3.00;3.00;;;;;23.25;55.59;99788.03;5051627;28;45317;-45
2022/10/21 01:50:01;;;;;;;;;4.50;4.00;;;;;23.25;55.62;99792.50;5059528;28;45355;-39
2022/10/21 01:52:28;;;;;;;;;5.25;4.75;;;;;23.25;55.81;99812.00;5059062;28;45430;-40
2022/10/21 01:54:56;;;;;;;;;4.75;3.50;;;;;23.26;55.35;99831.50;5059079;28;45279;-40
2022/10/21 01:57:22;;;;;;;;;3.00;2.75;;;;;23.27;55.87;99841.19;5054502;28;45283;-41
2022/10/21 01:59:47;;;;;;;;;3.50;2.25;;;;;23.28;55.69;99856.22;5051038;28;45354;-40
2022/10/21 02:02:14;;;;;;;;;4.00;3.50;;;;;23.29;56.02;99868.63;5058642;28;46066;-41
2022/10/21 02:04:40;;;;;;;;;5.25;4.00;;;;;23.28;56.08;99873.09;5031708;28;45353;-40
2022/10/21 02:07:05;;;;;;;;;2.00;2.00;;;;;23.27;56.28;99897.97;5074952;28;45367;-40
2022/10/21 02:09:30;;;;;;;;;3.00;3.00;;;;;23.27;55.91;99905.09;5078464;28;62944;-40
2022/10/21 02:11:58;;;;;;;;;3.00;3.00;;;;;23.27;56.24;99899.78;5063892;28;61207;-40
2022/10/21 02:14:35;;;;;;;;;2.00;2.00;;;;;23.25;55.77;99897.19;5048323;28;45212;-39
2022/10/21 02:17:01;;;;;;;;;3.75;2.75;;;;;23.25;56.07;99897.19;5042320;28;45201;-41
2022/10/21 02:19:26;;;;;;;;;2.25;1.00;;;;;23.24;55.33;99882.19;5069931;28;45273;-39
2022/10/21 02:21:52;;;;;;;;;2.75;2.00;;;;;23.24;55.20;99865.34;5080392;28;45245;-40
2022/10/21 02:24:21;;;;;;;;;2.50;2.00;;;;;23.23;55.55;99851.19;5069220;28;45356;-40
2022/10/21 02:26:46;;;;;;;;;3.25;3.25;;;;;23.24;55.11;99838.72;5076057;28;45265;-40
2022/10/21 02:29:12;;;;;;;;;2.25;2.25;;;;;23.23;55.71;99831.69;5079090;28;47431;-39
2022/10/21 02:32:04;;;;;;;;;3.25;3.25;;;;;23.24;55.71;99817.44;5080027;28;46955;-40
2022/10/21 02:34:42;;;;;;;;;2.50;2.25;;;;;23.25;55.30;99801.34;5070901;28;45331;-41
2022/10/21 02:37:14;;;;;;;;;4.75;3.00;;;;;23.25;55.45;99768.56;5053281;28;45208;-39
2022/10/21 02:39:49;;;;;;;;;4.00;4.00;;;;;23.26;55.10;99731.19;5055295;28;45479;-40
2022/10/21 02:42:16;;;;;;;;;2.50;2.50;;;;;23.25;55.54;99726.81;5041732;28;48261;-40
2022/10/21 02:44:42;;;;;;;;;4.00;3.75;;;;;23.25;55.44;99734.81;5059879;28;45434;-40
2022/10/21 02:47:07;;;;;;;;;3.00;3.00;;;;;23.26;55.44;99725.00;5069187;28;45354;-39
2022/10/21 02:49:32;;;;;;;;;2.25;2.00;;;;;23.26;55.45;99714.34;5057629;28;68851;-39
2022/10/21 02:51:58;;;;;;;;;3.00;3.00;;;;;23.25;55.39;99734.81;5058103;28;60203;-40
2022/10/21 02:54:23;;;;;;;;;3.50;3.00;;;;;23.26;55.34;99736.50;5058783;28;63293;-39
2022/10/21 02:56:48;;;;;;;;;2.75;2.50;;;;;23.26;55.69;99727.66;5059423;28;54335;-39
2022/10/21 02:59:14;;;;;;;;;4.25;3.50;;;;;23.26;55.62;99741.84;5059029;28;61350;-39
2022/10/21 03:01:39;;;;;;;;;3.50;2.75;;;;;23.26;55.90;99730.34;5058070;28;51183;-39
2022/10/21 03:04:05;;;;;;;;;3.00;2.00;;;;;23.27;55.72;99729.38;5058561;28;69480;-39
2022/10/21 03:06:30;;;;;;;;;3.75;2.75;;;;;23.26;55.88;99725.00;5057577;28;66611;-39
2022/10/21 03:08:55;;;;;;;;;2.50;2.25;;;;;23.25;55.42;99745.44;5058318;28;69899;-39
2022/10/21 03:11:21;;;;;;;;;3.50;2.75;;;;;23.26;55.64;99749.81;5075720;28;72093;-39
2022/10/21 03:13:46;;;;;;;;;3.00;3.00;;;;;23.27;55.05;99758.66;5081454;28;45276;-39
2022/10/21 03:16:12;;;;;;;;;5.00;5.00;;;;;23.27;55.44;99775.50;5081415;28;53375;-39
2022/10/21 03:18:37;;;;;;;;;2.25;2.00;;;;;23.29;55.60;99786.09;5083132;28;45476;-39
2022/10/21 03:21:03;;;;;;;;;3.25;3.25;;;;;23.29;55.63;99799.41;5082350;28;69903;-39
2022/10/21 03:23:28;;;;;;;;;3.00;3.00;;;;;23.31;55.59;99811.66;5079831;28;45320;-39
2022/10/21 03:25:53;;;;;;;;;3.75;3.75;;;;;23.32;55.44;99817.84;5071688;28;66624;-39
2022/10/21 03:28:19;;;;;;;;;2.00;2.00;;;;;23.31;55.30;99801.00;5082283;28;65473;-39
2022/10/21 03:30:44;;;;;;;;;3.00;3.00;;;;;23.33;55.57;99806.25;5082016;28;75573;-39
2022/10/21 03:33:09;;;;;;;;;3.00;3.00;;;;;23.33;55.10;99795.59;5081904;28;73714;-39
2022/10/21 03:35:35;;;;;;;;;4.75;3.00;;;;;23.32;55.18;99784.09;5082498;28;58961;-39
2022/10/21 03:38:00;;;;;;;;;2.00;2.00;;;;;23.31;55.26;99776.19;5081901;28;66595;-39
2022/10/21 03:40:29;;;;;;;;;3.50;3.50;;;;;23.32;55.13;99761.94;5082693;28;57304;-39
2022/10/21 03:42:57;;;;;;;;;3.00;3.00;;;;;23.32;55.62;99777.91;5065015;28;45362;-39
2022/10/21 03:45:23;;;;;;;;;3.00;3.00;;;;;23.32;55.07;99775.25;5082980;28;45380;-39
2022/10/21 03:47:48;;;;;;;;;4.00;2.75;;;;;23.32;55.72;99783.22;5082568;28;45579;-39
2022/10/21 03:50:13;;;;;;;;;2.00;2.00;;;;;23.33;55.49;99772.47;5081803;28;72756;-39
2022/10/21 03:52:39;;;;;;;;;2.50;2.50;;;;;23.33;55.75;99790.25;5063213;28;72197;-38
2022/10/21 03:55:05;;;;;;;;;5.50;3.75;;;;;23.34;55.42;99802.63;5082449;28;54973;-39
2022/10/21 03:57:30;;;;;;;;;2.75;2.00;;;;;23.33;55.54;99787.59;5081198;28;45493;-39
2022/10/21 03:59:55;;;;;;;;;3.00;2.75;;;;;23.33;55.14;99787.59;5081539;28;72541;-39
2022/10/21 04:02:21;;;;;;;;;2.50;1.75;;;;;23.33;55.61;99792.94;5080390;28;63415;-39
2022/10/21 04:04:46;;;;;;;;;2.50;2.50;;;;;23.33;55.24;99800.91;5081950;28;60517;-39
2022/10/21 04:07:11;;;;;;;;;3.00;3.00;;;;;23.32;54.97;99804.53;5081345;28;73403;-39
2022/10/21 04:09:37;;;;;;;;;2.00;2.00;;;;;23.33;55.21;99796.44;5080823;28;48853;-39
2022/10/21 04:12:02;;;;;;;;;4.00;3.00;;;;;23.33;55.62;99799.09;5066186;28;45226;-39
2022/10/21 04:14:28;;;;;;;;;2.50;2.00;;;;;23.33;55.09;99801.78;5061533;28;62432;-39
2022/10/21 04:16:53;;;;;;;;;2.75;2.75;;;;;23.33;55.19;99803.56;5061145;28;61936;-39
2022/10/21 04:19:18;;;;;;;;;2.50;2.50;;;;;23.32;55.57;99800.06;5060468;28;54407;-39
2022/10/21 04:21:44;;;;;;;;;4.00;4.00;;;;;23.33;55.56;99804.44;5061673;28;49668;-39
2022/10/21 04:24:09;;;;;;;;;2.25;2.25;;;;;23.34;55.55;99789.31;5061410;28;45255;-38
2022/10/21 04:26:35;;;;;;;;;6.00;3.75;;;;;23.33;55.04;99793.78;5076141;28;45240;-39
2022/10/21 04:29:00;;;;;;;;;3.25;3.00;;;;;23.33;55.43;99787.59;5081323;28;72033;-39
2022/10/21 04:31:25;;;;;;;;;2.75;2.75;;;;;23.33;54.93;99792.94;5081258;28;59377;-38
2022/10/21 04:33:51;;;;;;;;;1.00;1.00;;;;;23.33;55.45;99792.94;5082038;28;52014;-39
2022/10/21 04:36:17;;;;;;;;;2.50;2.00;;;;;23.33;55.14;99793.78;5080658;28;45517;-39
2022/10/21 04:38:42;;;;;;;;;4.00;4.00;;;;;23.32;55.13;99778.75;5081845;28;46048;-38
2022/10/21 04:41:07;;;;;;;;;2.50;1.25;;;;;23.33;55.00;99791.13;5079672;28;71426;-39
2022/10/21 04:43:33;;;;;;;;;4.50;3.00;;;;;23.33;54.67;99796.44;5081374;28;60144;-39
2022/10/21 04:45:58;;;;;;;;;3.75;2.50;;;;;23.34;54.82;99800.81;5081356;28;50651;-38
2022/10/21 04:48:23;;;;;;;;;5.25;4.25;;;;;23.35;55.01;99799.00;5063218;28;53991;-38
2022/10/21 04:50:50;;;;;;;;;4.00;3.00;;;;;23.34;54.91;99795.50;5080422;28;45424;-39
2022/10/21 04:53:15;;;;;;;;;3.00;3.00;;;;;23.34;55.01;99800.81;5080582;28;45448;-38
2022/10/21 04:55:41;;;;;;;;;5.50;3.75;;;;;23.35;54.73;99793.69;5080426;28;45397;-38
2022/10/21 04:58:06;;;;;;;;;5.75;3.00;;;;;23.35;54.96;99789.22;5080723;28;70567;-38
2022/10/21 05:00:31;;;;;;;;;4.00;3.00;;;;;23.36;55.23;99798.06;5079414;28;69638;-38
2022/10/21 05:02:57;;;;;;;;;2.50;2.50;;;;;23.36;55.19;99798.06;5080281;28;45522;-38
2022/10/21 05:05:22;;;;;;;;;6.00;4.25;;;;;23.37;54.92;99791.81;5062074;28;45194;-38
2022/10/21 05:07:48;;;;;;;;;3.00;3.00;;;;;23.37;55.09;99782.03;5078099;28;65628;-38
2022/10/21 05:10:13;;;;;;;;;4.25;3.00;;;;;23.37;55.04;99784.69;5080907;28;57035;-39
2022/10/21 05:12:39;;;;;;;;;4.25;2.25;;;;;23.36;55.17;99784.75;5062734;28;62808;-39
2022/10/21 05:15:04;;;;;;;;;2.75;2.25;;;;;23.37;55.24;99783.84;5074131;28;64560;-39
2022/10/21 05:17:30;;;;;;;;;2.25;2.25;;;;;23.37;54.56;99794.47;5067229;28;45165;-39
2022/10/21 05:19:55;;;;;;;;;2.25;1.75;;;;;23.38;55.09;99801.53;5060093;28;69595;-38
2022/10/21 05:22:20;;;;;;;;;5.75;5.00;;;;;23.38;54.87;99812.16;5059232;28;52018;-39
2022/10/21 05:24:46;;;;;;;;;3.25;2.75;;;;;23.39;54.51;99816.53;5069896;28;66981;-39
2022/10/21 05:27:11;;;;;;;;;5.25;4.00;;;;;23.39;54.64;99819.22;5078955;28;70580;-38
2022/10/21 05:29:36;;;;;;;;;3.00;2.50;;;;;23.39;54.91;99821.88;5059267;28;66687;-39
2022/10/21 05:32:02;;;;;;;;;3.75;3.75;;;;;23.39;54.42;99809.41;5072654;28;68997;-39
2022/10/21 05:34:27;;;;;;;;;2.50;2.50;;;;;23.39;54.84;99819.22;5079208;28;48441;-39
2022/10/21 05:36:52;;;;;;;;;4.25;4.00;;;;;23.40;54.83;99802.28;5059649;27;71115;-38
2022/10/21 05:39:18;;;;;;;;;8.00;3.50;;;;;23.39;54.39;99796.09;5063307;28;69632;-39
2022/10/21 05:41:43;;;;;;;;;4.00;3.00;;;;;23.41;54.53;99791.53;5060108;28;61857;-38
2022/10/21 05:44:08;;;;;;;;;4.75;3.75;;;;;23.42;54.83;99803.03;5059395;28;69976;-38
2022/10/21 05:46:34;;;;;;;;;5.50;4.25;;;;;23.42;54.89;99806.56;5058512;28;67514;-39
2022/10/21 05:48:59;;;;;;;;;3.25;3.00;;;;;23.42;54.57;99811.88;5060493;28;45404;-39
2022/10/21 05:51:25;;;;;;;;;3.00;3.00;;;;;23.44;54.75;99813.59;5060763;28;45380;-38
2022/10/21 05:53:54;;;;;;;;;5.50;4.00;;;;;23.44;54.66;99825.09;5065027;28;45392;-39
2022/10/21 05:56:19;;;;;;;;;4.75;3.25;;;;;23.44;54.97;99824.25;5069613;28;45555;-38
2022/10/21 05:58:45;;;;;;;;;5.00;5.00;;;;;23.45;54.84;99820.63;5059841;28;48419;-39
2022/10/21 06:01:10;;;;;;;;;3.50;3.50;;;;;23.45;55.08;99831.28;5059759;28;64052;-38
2022/10/21 06:03:35;;;;;;;;;5.00;2.75;;;;;23.46;54.94;99841.88;5070426;28;45244;-38
2022/10/21 06:06:03;;;;;;;;;3.00;3.00;;;;;23.48;54.91;99857.75;5080104;28;54857;-39
2022/10/21 06:08:29;;;;;;;;;5.25;3.00;;;;;23.49;55.06;99868.31;5080299;28;45346;-39
2022/10/21 06:11:01;;;;;;;;;3.00;3.00;;;;;23.50;55.20;99866.50;5073618;28;45287;-39
2022/10/21 06:13:27;;;;;;;;;5.00;4.00;;;;;23.50;55.55;99878.03;5060207;28;45339;-38
2022/10/21 06:15:52;;;;;;;;;5.50;4.50;;;;;23.50;55.59;99894.00;5060096;28;45969;-39
2022/10/21 06:18:17;;;;;;;;;4.00;4.00;;;;;23.51;55.75;99893.06;5059251;28;65331;-38
2022/10/21 06:20:43;;;;;;;;;3.50;3.50;;;;;23.51;55.37;99884.22;5046698;28;45491;-38
2022/10/21 06:23:11;;;;;;;;;5.50;5.00;;;;;23.51;55.61;99900.19;5057573;28;67977;-38
2022/10/21 06:25:36;;;;;;;;;3.00;3.00;;;;;23.51;55.58;99909.03;5058336;28;46996;-38
2022/10/21 06:28:02;;;;;;;;;3.00;3.00;;;;;23.49;55.82;99892.28;5059295;28;61698;-38
2022/10/21 06:30:27;;;;;;;;;5.25;4.50;;;;;23.49;55.34;99905.59;5060206;28;45220;-39
2022/10/21 06:32:52;;;;;;;;;4.00;4.00;;;;;23.49;55.28;99926.91;5059316;28;60944;-38
2022/10/21 06:35:18;;;;;;;;;4.75;4.75;;;;;23.49;55.62;99934.91;5059453;28;62308;-39
2022/10/21 06:37:43;;;;;;;;;5.75;4.00;;;;;23.50;55.59;99935.75;5058476;28;45244;-38
2022/10/21 06:40:09;;;;;;;;;3.00;3.00;;;;;23.49;55.23;99928.72;5058925;28;45257;-40
2022/10/21 06:42:34;;;;;;;;;4.25;4.25;;;;;23.48;55.47;99940.31;5058373;28;45228;-38
2022/10/21 06:45:00;;;;;;;;;7.75;6.75;;;;;23.48;56.02;99942.97;5058940;28;73297;-38
2022/10/21 06:47:25;;;;;;;;;5.00;3.25;;;;;23.45;56.35;99933.34;5061927;28;52212;-39
2022/10/21 06:49:50;;;;;;;;;3.50;3.25;;;;;23.39;55.87;99931.91;5062711;28;66596;-38
2022/10/21 06:52:16;;;;;;;;;5.75;4.25;;;;;23.36;56.35;99925.88;5062774;28;63508;-38
2022/10/21 06:54:41;;;;;;;;;3.25;3.25;;;;;23.33;56.54;99934.06;5063045;28;46862;-39
2022/10/21 06:57:07;;;;;;;;;3.50;3.50;;;;;23.30;56.35;99935.09;5062392;28;72424;-38
2022/10/21 06:59:32;;;;;;;;;7.00;4.75;;;;;23.26;56.49;99922.03;5062715;28;63526;-38
2022/10/21 07:01:57;;;;;;;;;3.75;3.50;;;;;23.25;56.99;99926.50;5063159;28;45386;-38
2022/10/21 07:04:23;;;;;;;;;5.00;4.75;;;;;23.27;56.62;99929.06;5062081;28;69168;-39
2022/10/21 07:06:48;;;;;;;;;3.75;3.25;;;;;23.25;57.21;99928.28;5077174;28;61260;-38
2022/10/21 07:09:13;;;;;;;;;4.75;4.00;;;;;23.24;57.23;99922.13;5082650;28;62545;-37
2022/10/21 07:11:39;;;;;;;;;7.50;5.25;;;;;23.21;57.39;99921.44;5067697;27;62420;-38
2022/10/21 07:14:04;;;;;;;;;9.25;3.25;;;;;23.19;57.15;99936.63;5062662;28;56963;-38
2022/10/21 07:16:31;;;;;;;;;4.00;4.00;;;;;23.20;57.45;99951.66;5062728;28;45717;-38
2022/10/21 07:18:57;;;;;;;;;5.00;4.00;;;;;23.17;57.59;99971.31;5063199;28;45581;-38
2022/10/21 07:21:24;;;;;;;;;5.25;5.25;;;;;23.16;57.95;99982.03;5061854;28;71987;-38
2022/10/21 07:23:52;;;;;;;;;7.50;4.50;;;;;23.18;57.85;99983.69;5052537;28;47503;-38
2022/10/21 07:26:18;;;;;;;;;4.25;4.25;;;;;23.21;57.45;99993.31;5068130;28;45422;-38
2022/10/21 07:28:46;;;;;;;;;4.50;4.00;;;;;23.21;57.84;99975.53;5061843;28;45536;-37
2022/10/21 07:31:18;;;;;;;;;6.50;5.75;;;;;23.23;57.61;99944.34;5062494;28;45373;-38
2022/10/21 07:33:44;;;;;;;;;5.50;4.75;;;;;23.23;57.79;99955.00;5061791;28;45482;-38
2022/10/21 07:36:11;;;;;;;;;4.00;4.00;;;;;23.22;57.89;99982.56;5062430;28;45991;-39
2022/10/21 07:38:37;;;;;;;;;5.00;3.50;;;;;23.22;57.46;99992.38;5062683;28;45426;-44
2022/10/21 07:41:02;;;;;;;;;5.50;4.00;;;;;23.21;57.32;99990.66;5062517;28;45372;-46
2022/10/21 07:43:28;;;;;;;;;5.00;4.00;;;;;23.21;57.72;99996.84;5044327;28;46023;-42
2022/10/21 07:45:53;;;;;;;;;5.25;5.00;;;;;23.21;57.34;99998.66;5062523;28;45343;-41
2022/10/21 07:48:18;;;;;;;;;3.50;3.50;;;;;23.21;57.46;99993.31;5062109;28;52976;-41
2022/10/21 07:50:44;;;;;;;;;8.00;5.00;;;;;23.21;57.78;99993.31;5062485;28;45224;-42
2022/10/21 07:53:09;;;;;;;;;5.25;5.25;;;;;23.20;57.51;99995.13;5061392;28;67802;-43
2022/10/21 07:55:35;;;;;;;;;6.25;6.25;;;;;23.20;57.65;99997.78;5062399;28;45212;-45
2022/10/21 07:58:00;;;;;;;;;6.00;5.00;;;;;23.16;58.19;99990.03;5061887;28;45150;-45
2022/10/21 08:00:26;;;;;;;;;5.00;5.00;;;;;23.16;58.07;99992.69;5062303;28;45172;-48
2022/10/21 08:02:55;;;;;;;;;7.00;5.00;;;;;23.16;57.58;99995.34;5062011;28;45204;-44
2022/10/21 08:05:21;;;;;;;;;7.00;6.00;;;;;23.16;58.19;99992.69;5064736;28;45271;-46
2022/10/21 08:07:46;;;;;;;;;5.25;4.25;;;;;23.15;58.04;99997.16;5082325;28;45260;-45
2022/10/21 08:10:11;;;;;;;;;6.75;6.00;;;;;23.16;58.02;100006.00;5079358;28;45330;-46
2022/10/21 08:12:37;;;;;;;;;5.25;3.75;;;;;23.10;58.34;100002.72;5061486;28;63631;-47
2022/10/21 08:15:02;;;;;;;;;4.00;4.00;;;;;23.01;58.05;100005.03;5062039;28;45330;-44
2022/10/21 08:17:28;;;;;;;;;5.00;5.00;;;;;22.95;58.34;100003.56;5070055;28;45271;-45
2022/10/21 08:19:55;;;;;;;;;7.25;5.75;;;;;22.93;58.51;100008.09;5065232;28;70762;-41
2022/10/21 08:22:20;;;;;;;;;7.25;5.25;;;;;22.92;58.30;100003.72;5061586;28;45381;-45
2022/10/21 08:24:46;;;;;;;;;7.25;5.75;;;;;22.92;58.45;100008.19;5061760;28;45220;-42
2022/10/21 08:27:11;;;;;;;;;7.50;5.75;;;;;22.91;58.87;100009.97;5060030;28;63075;-45
2022/10/21 08:29:36;;;;;;;;;10.00;7.75;;;;;22.93;58.63;100013.41;5061302;28;54980;-43
2022/10/21 08:32:03;;;;;;;;;5.75;5.75;;;;;22.96;58.57;100007.09;5061371;28;59763;-44
2022/10/21 08:34:28;;;;;;;;;6.50;5.00;;;;;22.95;58.94;100003.56;5061738;28;45358;-42
2022/10/21 08:36:53;;;;;;;;;8.75;7.50;;;;;22.94;58.42;100007.19;5061671;28;48422;-41
2022/10/21 08:39:19;;;;;;;;;7.25;5.25;;;;;22.93;58.63;100010.75;5060546;28;66199;-44
2022/10/21 08:42:11;;;;;;;;;6.75;5.25;;;;;22.93;59.08;100017.88;5061679;28;45310;-45
2022/10/21 08:44:47;;;;;;;;;7.50;6.00;;;;;22.92;59.15;100011.69;5064918;28;45308;-43
2022/10/21 08:47:23;;;;;;;;;8.50;6.25;;;;;22.93;58.57;100009.91;5073783;28;45439;-42
2022/10/21 08:50:07;;;;;;;;;6.00;4.75;;;;;22.94;58.59;100011.66;5061814;28;45325;-44
2022/10/21 08:52:43;;;;;;;;;7.25;5.25;;;;;22.92;58.72;100016.16;5061062;28;46270;-42
2022/10/21 08:55:19;;;;;;;;;8.50;6.75;;;;;22.92;58.71;100018.81;5052998;28;45301;-44
2022/10/21 08:57:45;;;;;;;;;8.75;6.00;;;;;22.92;59.31;100022.34;5043721;28;45289;-44
2022/10/21 09:00:25;;;;;;;;;10.00;7.50;;;;;22.93;59.39;100025.88;5060042;28;45443;-44
2022/10/21 09:02:58;;;;;;;;;5.00;5.00;;;;;22.93;59.33;100021.41;5059963;28;47610;-42
2022/10/21 09:05:44;;;;;;;;;5.75;5.25;;;;;22.94;58.69;100017.81;5062766;28;45281;-42
2022/10/21 09:08:22;;;;;;;;;6.00;5.00;;;;;22.95;58.88;100027.53;5067410;28;45248;-43
2022/10/21 09:11:23;;;;;;;;;6.00;4.00;;;;;22.97;59.40;100016.78;5065036;28;49430;-41
2022/10/21 09:13:54;;;;;;;;;10.00;6.75;;;;;22.97;59.28;100017.66;5080439;28;45399;-41
2022/10/21 09:16:47;;;;;;;;;5.75;5.75;;;;;22.97;59.10;100012.31;5080940;28;51758;-42
2022/10/21 09:19:34;;;;;;;;;6.00;5.00;;;;;23.02;59.07;100020.94;5081943;28;45417;-47
2022/10/21 09:22:27;;;;;;;;;6.50;6.00;;;;;23.04;58.71;100015.53;5081453;27;45305;-45
2022/10/21 09:24:59;;;;;;;;;6.25;6.00;;;;;23.03;58.98;100027.13;5081250;28;46369;-45
2022/10/21 09:27:25;;;;;;;;;4.00;4.00;;;;;23.03;59.29;100025.31;5052267;28;45265;-42
2022/10/21 09:29:58;;;;;;;;;6.00;5.00;;;;;23.01;58.63;100021.84;5040594;28;45447;-41
2022/10/21 09:32:29;;;;;;;;;5.75;5.75;;;;;22.99;58.83;100018.41;5071644;28;45451;-43
2022/10/21 09:34:59;;;;;;;;;5.75;4.75;;;;;22.96;58.76;100012.41;5062959;28;46281;-43
2022/10/21 09:37:31;;;;;;;;;4.25;4.25;;;;;22.94;59.31;100019.63;5079665;28;45725;-44
2022/10/21 09:40:00;;;;;;;;;5.75;5.00;;;;;22.91;59.01;100012.66;5063295;28;45332;-43
2022/10/21 09:42:26;;;;;;;;;5.67;5.67;;;;;22.89;59.25;100011.03;5078917;28;45407;-43
2022/10/21 09:44:51;;;;;;;;;5.25;4.50;;;;;22.87;59.52;100010.25;5042743;28;48165;-46
2022/10/21 09:47:22;;;;;;;;;6.50;6.50;;;;;22.86;59.58;100011.19;5052985;28;49197;-46
2022/10/21 09:50:00;;;;;;;;;8.25;6.00;;;;;22.84;59.45;100017.44;5060839;28;45293;-43
2022/10/21 09:52:29;;;;;;;;;7.00;5.00;;;;;22.82;59.36;100018.41;5059159;28;45248;-43
2022/10/21 09:54:55;;;;;;;;;12.00;7.00;;;;;22.81;59.70;100020.22;5053117;28;45438;-43
2022/10/21 09:57:46;;;;;;;;;6.25;5.00;;;;;22.81;59.64;100016.72;5062419;28;52274;-45
2022/10/21 10:00:11;;;;;;;;;5.00;5.00;;;;;22.81;59.40;100027.34;5059244;28;45213;-44
2022/10/21 10:02:44;;;;;;;;;6.50;5.50;;;;;22.80;59.78;100021.16;5060301;28;45267;-42
2022/10/21 10:05:35;;;;;;;;;8.50;6.25;;;;;22.80;59.69;100036.28;5056186;28;46841;-45
2022/10/21 10:08:27;;;;;;;;;6.00;6.00;;;;;22.80;59.33;100030.94;5060215;28;45335;-45
2022/10/21 10:11:08;;;;;;;;;7.50;6.50;;;;;22.82;59.28;100031.72;5066714;28;45274;-45
2022/10/21 10:13:38;;;;;;;;;6.00;5.00;;;;;22.82;59.33;100031.72;5072622;28;45410;-45
2022/10/21 10:16:30;;;;;;;;;6.25;6.25;;;;;22.81;59.78;100025.53;5052806;28;46260;-43
2022/10/21 10:19:10;;;;;;;;;6.75;5.00;;;;;22.82;59.58;100029.91;5060651;28;45433;-42
2022/10/21 10:21:36;;;;;;;;;8.00;5.50;;;;;22.81;59.50;100032.66;5059957;28;45265;-44
2022/10/21 10:24:02;;;;;;;;;6.50;6.50;;;;;22.84;59.76;100024.50;5067112;28;68751;-40
2022/10/21 10:26:29;;;;;;;;;6.00;5.25;;;;;22.84;59.40;100028.06;5076566;28;46166;-42
2022/10/21 10:29:13;;;;;;;;;6.00;6.00;;;;;22.84;59.40;100033.38;5048089;28;45253;-41
2022/10/21 10:31:39;;;;;;;;;5.00;5.00;;;;;22.87;59.29;100035.06;5072422;28;45301;-42
2022/10/21 10:34:06;;;;;;;;;4.50;4.00;;;;;22.89;59.03;100040.28;5034265;28;45854;-44
2022/10/21 10:36:38;;;;;;;;;7.50;6.00;;;;;22.92;59.31;100025.00;5041054;28;47054;-45
2022/10/21 10:39:08;;;;;;;;;3.75;3.75;;;;;22.92;59.56;100030.31;5071802;28;45295;-42
2022/10/21 10:41:37;;;;;;;;;4.25;4.25;;;;;22.93;59.10;100024.06;5079170;28;45349;-42
2022/10/21 10:44:36;;;;;;;;;6.00;6.00;;;;;22.93;59.64;100031.19;5061787;28;46489;-48
2022/10/21 10:47:02;;;;;;;;;6.00;4.00;;;;;22.94;59.57;100030.28;5028754;28;46202;-43
2022/10/21 10:49:34;;;;;;;;;6.25;6.00;;;;;22.93;59.22;100034.69;5059729;28;45421;-41
2022/10/21 10:52:10;;;;;;;;;4.50;4.50;;;;;22.94;59.18;100027.63;5071351;28;45267;-45
2022/10/21 10:54:36;;;;;;;;;5.25;4.75;;;;;22.93;58.85;100018.75;5067031;28;45153;-43
2022/10/21 10:57:14;;;;;;;;;8.50;6.75;;;;;22.94;59.57;100022.28;5079989;28;45273;-46
2022/10/21 10:59:54;;;;;;;;;6.00;5.00;;;;;22.96;58.95;100020.41;5078728;28;45378;-46
2022/10/21 11:02:41;;;;;;;;;4.00;4.00;;;;;22.97;59.06;100022.97;5062349;28;45279;-46
2022/10/21 11:05:40;;;;;;;;;4.00;4.00;;;;;22.99;59.34;100022.88;5066341;27;45434;-44
2022/10/21 11:08:26;;;;;;;;;4.00;4.00;;;;;23.00;59.68;100017.47;5079627;27;46159;-46
2022/10/21 11:10:55;;;;;;;;;5.25;4.75;;;;;23.01;59.91;100013.88;5070588;28;45370;-43
2022/10/21 11:13:21;;;;;;;;;7.75;5.00;;;;;23.03;60.31;100013.81;5043473;28;45318;-40
2022/10/21 11:16:10;;;;;;;;;5.00;5.00;;;;;23.04;60.12;100016.38;5078503;28;45268;-41
2022/10/21 11:18:44;;;;;;;;;8.00;5.75;;;;;23.06;60.88;100024.28;5079558;27;45462;-46
2022/10/21 11:21:27;;;;;;;;;5.50;4.25;;;;;23.04;59.12;100021.72;5079783;28;45341;-46
2022/10/21 11:24:05;;;;;;;;;2.75;2.75;;;;;22.98;58.11;100016.69;5069888;28;45260;-43
2022/10/21 11:26:51;;;;;;;;;5.25;4.00;;;;;22.93;59.09;100015.22;5076259;28;45296;-46
2022/10/21 11:29:25;;;;;;;;;3.00;3.00;;;;;22.89;58.56;100032.31;5079559;27;46302;-46
2022/10/21 11:31:53;;;;;;;;;3.75;3.00;;;;;22.85;59.21;100034.28;5079669;28;45579;-47
2022/10/21 11:34:39;;;;;;;;;4.75;3.25;;;;;22.80;58.15;100031.81;5081852;28;45214;-44
2022/10/21 11:37:43;;;;;;;;;3.00;3.00;;;;;22.78;57.79;100022.19;5066459;28;45264;-49
2022/10/21 11:40:36;;;;;;;;;4.75;2.50;;;;;22.70;57.46;100027.91;5075263;28;45266;-46
2022/10/21 11:43:24;;;;;;;;;2.25;2.00;;;;;22.66;57.49;100030.81;5082746;28;45301;-45